createdAt,value
2023-06-07T00:01:09.528Z,2.78
2023-06-07T00:04:14.451Z,2.58
2023-06-07T00:07:17.002Z,2.50
2023-06-07T00:10:19.107Z,2.63
2023-06-07T00:13:21.085Z,2.60
2023-06-07T00:16:24.643Z,2.97
2023-06-07T00:19:26.787Z,2.10
2023-06-07T00:22:30.296Z,2.40
2023-06-07T00:25:32.381Z,2.23
2023-06-07T00:28:34.457Z,2.60
2023-06-07T00:31:37.057Z,2.58
2023-06-07T00:34:39.222Z,2.08
2023-06-07T00:37:42.744Z,2.20
2023-06-07T00:40:44.798Z,2.10
2023-06-07T00:43:47.268Z,2.20
2023-06-07T00:46:51.546Z,1.98
2023-06-07T00:49:55.781Z,1.67
2023-06-07T00:52:57.891Z,2.17
2023-06-07T00:55:59.948Z,1.93
2023-06-07T00:59:01.972Z,2.10
2023-06-07T01:02:04.259Z,2.25
2023-06-07T01:05:06.929Z,2.45
2023-06-07T01:08:10.514Z,2.28
2023-06-07T01:11:14.348Z,2.50
2023-06-07T01:14:19.321Z,2.20
2023-06-07T01:17:26.086Z,1.80
2023-06-07T01:20:30.839Z,2.25
2023-06-07T01:23:34.471Z,2.00
2023-06-07T01:26:37.990Z,2.60
2023-06-07T01:29:40.615Z,2.20
2023-06-07T01:32:45.655Z,2.53
2023-06-07T01:35:53.673Z,2.20
2023-06-07T01:38:57.463Z,2.20
2023-06-07T01:42:01.341Z,2.60
2023-06-07T01:45:05.934Z,2.15
2023-06-07T01:48:08.345Z,2.05
2023-06-07T01:51:10.468Z,2.30
2023-06-07T01:54:14.783Z,2.35
2023-06-07T01:57:27.220Z,2.80
2023-06-07T02:00:29.544Z,2.25
2023-06-07T02:03:46.389Z,2.17
2023-06-07T02:06:52.013Z,2.10
2023-06-07T02:09:54.698Z,2.28
2023-06-07T02:12:58.938Z,2.07
2023-06-07T02:16:01.097Z,2.08
2023-06-07T02:19:08.181Z,2.00
2023-06-07T02:22:21.025Z,2.33
2023-06-07T02:25:24.414Z,2.30
2023-06-07T02:28:26.523Z,2.40
2023-06-07T02:31:28.570Z,1.85
2023-06-07T02:34:30.922Z,2.85
2023-06-07T02:37:33.250Z,2.00
2023-06-07T02:40:35.384Z,2.00
2023-06-07T02:43:37.717Z,2.43
2023-06-07T02:46:39.749Z,2.25
2023-06-07T02:49:42.295Z,2.15
2023-06-07T02:52:45.545Z,2.10
2023-06-07T02:55:47.976Z,2.28
2023-06-07T02:58:50.481Z,2.43
2023-06-07T03:01:52.821Z,2.25
2023-06-07T03:04:57.458Z,1.67
2023-06-07T03:08:01.215Z,2.65
2023-06-07T03:11:04.560Z,2.42
2023-06-07T03:14:10.974Z,2.53
2023-06-07T03:17:18.596Z,2.20
2023-06-07T03:20:26.131Z,2.63
2023-06-07T03:23:31.560Z,2.47
2023-06-07T03:26:35.294Z,3.13
2023-06-07T03:29:38.296Z,2.90
2023-06-07T03:32:41.442Z,2.72
2023-06-07T03:35:45.651Z,3.03
2023-06-07T03:38:54.701Z,3.20
2023-06-07T03:41:57.395Z,3.22
2023-06-07T03:45:01.377Z,3.07
2023-06-07T03:48:06.087Z,3.08
2023-06-07T03:51:08.512Z,3.53
2023-06-07T03:54:11.355Z,3.15
2023-06-07T03:57:13.484Z,3.42
2023-06-07T04:00:18.865Z,3.30
2023-06-07T04:03:28.605Z,3.70
2023-06-07T04:06:34.881Z,3.40
2023-06-07T04:09:36.941Z,3.72
2023-06-07T04:12:38.969Z,4.00
2023-06-07T04:15:41.695Z,3.57
2023-06-07T04:18:43.695Z,2.95
2023-06-07T04:21:45.983Z,3.50
2023-06-07T04:24:49.404Z,3.00
2023-06-07T04:27:52.356Z,3.30
2023-06-07T04:30:58.201Z,2.90
2023-06-07T04:34:02.912Z,2.60
2023-06-07T04:37:08.069Z,2.95
2023-06-07T04:40:11.176Z,3.00
2023-06-07T04:43:14.135Z,2.67
2023-06-07T04:46:19.487Z,3.07
2023-06-07T04:49:21.590Z,2.90
2023-06-07T04:52:27.674Z,3.25
2023-06-07T04:55:36.666Z,3.00
2023-06-07T04:58:41.613Z,2.85
2023-06-07T05:01:46.105Z,2.60
2023-06-07T05:04:48.522Z,3.38
2023-06-07T05:07:51.973Z,3.25
2023-06-07T05:10:54.044Z,3.25
2023-06-07T05:13:57.120Z,3.30
2023-06-07T05:17:01.192Z,2.93
2023-06-07T05:20:13.530Z,3.08
2023-06-07T05:23:18.209Z,2.80
2023-06-07T05:26:24.488Z,2.72
2023-06-07T05:29:27.414Z,2.58
2023-06-07T05:32:29.555Z,2.27
2023-06-07T05:35:32.106Z,2.92
2023-06-07T05:38:34.128Z,2.80
2023-06-07T05:41:38.350Z,2.55
2023-06-07T05:44:41.429Z,2.72
2023-06-07T05:47:46.819Z,2.60
2023-06-07T05:50:50.092Z,2.42
2023-06-07T05:53:52.009Z,2.60
2023-06-07T05:56:54.456Z,2.20
2023-06-07T05:59:56.839Z,2.30
2023-06-07T06:03:02.793Z,2.43
2023-06-07T06:06:16.306Z,2.60
2023-06-07T06:09:18.695Z,2.38
2023-06-07T06:12:20.624Z,2.55
2023-06-07T06:15:23.191Z,2.63
2023-06-07T06:18:25.205Z,1.90
2023-06-07T06:21:27.475Z,2.47
2023-06-07T06:24:29.435Z,2.40
2023-06-07T06:27:31.532Z,2.53
2023-06-07T06:30:33.627Z,2.38
2023-06-07T06:33:35.749Z,2.40
2023-06-07T06:36:37.746Z,2.28
2023-06-07T06:39:39.844Z,2.67
2023-06-07T06:42:41.842Z,2.60
2023-06-07T06:45:57.436Z,2.47
2023-06-07T06:49:11.332Z,2.80
2023-06-07T06:52:14.741Z,2.30
2023-06-07T06:55:17.207Z,2.08
2023-06-07T06:58:19.340Z,2.75
2023-06-07T07:01:21.388Z,2.55
2023-06-07T07:04:23.428Z,2.60
2023-06-07T07:07:27.615Z,3.00
2023-06-07T07:10:29.676Z,2.80
2023-06-07T07:13:31.958Z,2.33
2023-06-07T07:16:36.904Z,2.50
2023-06-07T07:19:40.845Z,2.20
2023-06-07T07:22:45.713Z,2.85
2023-06-07T07:25:47.728Z,2.60
2023-06-07T07:28:49.803Z,2.20
2023-06-07T07:31:51.727Z,2.65
2023-06-07T07:34:53.808Z,2.90
2023-06-07T07:37:55.976Z,2.45
2023-06-07T07:40:57.944Z,2.72
2023-06-07T07:44:00.274Z,2.58
2023-06-07T07:47:02.450Z,3.03
2023-06-07T07:50:06.841Z,2.43
2023-06-07T07:53:09.268Z,2.60
2023-06-07T07:56:11.652Z,2.90
2023-06-07T07:59:13.671Z,2.85
2023-06-07T08:02:15.810Z,2.40
2023-06-07T08:05:17.918Z,2.73
2023-06-07T08:08:20.115Z,2.92
2023-06-07T08:11:22.362Z,2.58
2023-06-07T08:14:24.391Z,2.78
2023-06-07T08:17:26.871Z,3.17
2023-06-07T08:20:28.827Z,2.63
2023-06-07T08:23:31.384Z,2.80
2023-06-07T08:26:33.389Z,2.90
2023-06-07T08:29:35.651Z,2.55
2023-06-07T08:32:37.724Z,2.38
2023-06-07T08:35:39.792Z,2.80
2023-06-07T08:38:45.462Z,3.00
2023-06-07T08:41:47.607Z,2.58
2023-06-07T08:44:50.497Z,2.42
2023-06-07T08:47:54.413Z,2.60
2023-06-07T08:50:57.666Z,2.30
2023-06-07T08:54:03.853Z,2.50
2023-06-07T08:57:07.021Z,2.63
2023-06-07T09:00:09.992Z,2.80
2023-06-07T09:03:15.364Z,2.70
2023-06-07T09:06:18.992Z,2.47
2023-06-07T09:09:21.398Z,2.72
2023-06-07T09:12:23.507Z,2.83
2023-06-07T09:15:25.640Z,2.60
2023-06-07T09:18:48.717Z,2.50
2023-06-07T09:21:51.094Z,2.70
2023-06-07T09:24:53.365Z,2.45
2023-06-07T09:27:56.155Z,3.03
2023-06-07T09:31:01.314Z,2.83
2023-06-07T09:34:23.643Z,2.40
2023-06-07T09:37:41.545Z,2.80
2023-06-07T09:40:52.768Z,2.35
2023-06-07T09:43:55.937Z,2.35
2023-06-07T09:47:03.153Z,2.25
2023-06-07T09:50:11.151Z,2.72
2023-06-07T09:53:13.243Z,2.53
2023-06-07T09:56:18.583Z,2.35
2023-06-07T09:59:21.073Z,2.47
2023-06-07T10:02:26.891Z,2.45
2023-06-07T10:05:29.338Z,2.28
2023-06-07T10:08:32.752Z,2.47
2023-06-07T10:11:37.398Z,2.38
2023-06-07T10:14:41.526Z,2.53
2023-06-07T10:17:51.517Z,2.47
2023-06-07T10:20:58.591Z,2.20
2023-06-07T10:24:05.781Z,2.40
2023-06-07T10:27:13.460Z,2.28
2023-06-07T10:30:17.499Z,2.88
2023-06-07T10:33:19.983Z,2.97
2023-06-07T10:36:24.913Z,3.17
2023-06-07T10:39:27.066Z,3.23
2023-06-07T10:42:29.207Z,2.40
2023-06-07T10:45:31.535Z,2.83
2023-06-07T10:48:38.777Z,2.92
2023-06-07T10:51:49.967Z,2.70
2023-06-07T10:54:52.959Z,3.20
2023-06-07T10:57:55.442Z,3.13
2023-06-07T11:00:58.166Z,3.45
2023-06-07T11:04:00.378Z,3.25
2023-06-07T11:07:26.627Z,3.38
2023-06-07T11:10:35.081Z,3.77
2023-06-07T11:13:45.902Z,3.97
2023-06-07T11:16:48.164Z,4.25
2023-06-07T11:19:56.606Z,4.22
2023-06-07T11:23:30.750Z,4.38
2023-06-07T11:26:36.777Z,3.93
2023-06-07T11:29:40.713Z,4.82
2023-06-07T11:32:43.688Z,4.97
2023-06-07T11:35:47.006Z,5.03
2023-06-07T11:39:00.367Z,4.78
2023-06-07T11:42:03.301Z,5.07
2023-06-07T11:45:05.895Z,4.90
2023-06-07T11:48:09.106Z,4.88
2023-06-07T11:51:12.361Z,5.03
2023-06-07T11:54:14.388Z,5.25
2023-06-07T11:57:17.404Z,4.90
2023-06-07T12:00:25.248Z,4.65
2023-06-07T12:03:28.057Z,5.00
2023-06-07T12:06:30.465Z,5.30
2023-06-07T12:09:40.872Z,5.15
2023-06-07T12:12:43.597Z,4.77
2023-06-07T12:15:47.730Z,4.80
2023-06-07T12:18:50.473Z,4.85
2023-06-07T12:21:53.736Z,4.82
2023-06-07T12:24:55.873Z,4.80
2023-06-07T12:27:58.271Z,5.10
2023-06-07T12:31:00.336Z,6.15
2023-06-07T12:34:04.295Z,6.45
2023-06-07T12:37:06.808Z,5.28
2023-06-07T12:40:09.483Z,5.32
2023-06-07T12:43:11.557Z,5.60
2023-06-07T12:46:14.327Z,6.05
2023-06-07T12:49:16.771Z,5.47
2023-06-07T12:52:19.286Z,5.38
2023-06-07T12:55:21.377Z,5.40
2023-06-07T12:58:23.410Z,5.63
2023-06-07T13:01:25.676Z,5.40
2023-06-07T13:04:30.776Z,5.80
2023-06-07T13:07:35.014Z,5.20
2023-06-07T13:10:37.629Z,5.07
2023-06-07T13:13:39.838Z,5.37
2023-06-07T13:16:42.695Z,5.32
2023-06-07T13:19:45.666Z,5.38
2023-06-07T13:22:47.782Z,5.30
2023-06-07T13:25:49.828Z,5.47
2023-06-07T13:28:51.887Z,5.30
2023-06-07T13:31:53.941Z,5.25
2023-06-07T13:34:56.238Z,5.22
2023-06-07T13:38:01.260Z,5.60
2023-06-07T13:41:03.604Z,4.72
2023-06-07T13:44:17.130Z,4.37
2023-06-07T13:47:21.475Z,5.13
2023-06-07T13:50:23.563Z,5.03
2023-06-07T13:53:25.681Z,4.68
2023-06-07T13:56:28.300Z,5.20
2023-06-07T13:59:30.844Z,4.90
2023-06-07T14:02:33.312Z,4.75
2023-06-07T14:05:35.852Z,5.10
2023-06-07T14:08:38.166Z,4.70
2023-06-07T14:11:40.419Z,4.82
2023-06-07T14:14:42.359Z,4.93
2023-06-07T14:17:44.601Z,4.60
2023-06-07T14:20:46.699Z,4.68
2023-06-07T14:23:48.664Z,4.70
2023-06-07T14:26:50.718Z,4.80
2023-06-07T14:29:52.696Z,5.37
2023-06-07T14:32:54.922Z,4.78
2023-06-07T14:35:56.979Z,4.10
2023-06-07T14:39:01.193Z,4.55
2023-06-07T14:42:03.341Z,4.35
2023-06-07T14:45:06.813Z,4.23
2023-06-07T14:48:09.253Z,4.70
2023-06-07T14:51:11.322Z,4.28
2023-06-07T14:54:13.410Z,4.53
2023-06-07T14:57:16.222Z,4.50
2023-06-07T15:00:18.904Z,4.57
2023-06-07T15:03:21.287Z,4.45
2023-06-07T15:06:23.448Z,3.78
2023-06-07T15:09:25.575Z,3.97
2023-06-07T15:12:27.980Z,3.33
2023-06-07T15:15:31.486Z,3.37
2023-06-07T15:18:33.627Z,3.33
2023-06-07T15:21:35.575Z,3.58
2023-06-07T15:24:37.623Z,3.70
2023-06-07T15:27:41.445Z,3.78
2023-06-07T15:30:43.821Z,3.57
2023-06-07T15:33:46.089Z,5.05
2023-06-07T15:36:48.115Z,5.70
2023-06-07T15:39:50.265Z,5.55
2023-06-07T15:42:52.242Z,5.68
2023-06-07T15:45:54.189Z,5.60
2023-06-07T15:48:56.196Z,5.40
2023-06-07T15:51:58.967Z,5.05
2023-06-07T15:55:01.042Z,4.30
2023-06-07T15:58:03.108Z,3.60
2023-06-07T16:01:05.177Z,3.00
2023-06-07T16:04:07.248Z,3.80
2023-06-07T16:07:10.868Z,3.72
2023-06-07T16:10:12.964Z,3.28
2023-06-07T16:13:15.121Z,2.95
2023-06-07T16:16:17.250Z,2.90
2023-06-07T16:19:19.441Z,3.10
2023-06-07T16:22:21.681Z,3.45
2023-06-07T16:25:23.789Z,3.13
2023-06-07T16:28:25.926Z,3.92
2023-06-07T16:31:29.261Z,3.27
2023-06-07T16:34:31.368Z,3.35
2023-06-07T16:37:33.482Z,3.40
2023-06-07T16:40:35.446Z,3.40
2023-06-07T16:43:37.454Z,3.17
2023-06-07T16:46:40.516Z,3.00
2023-06-07T16:49:42.699Z,3.60
2023-06-07T16:52:44.860Z,3.85
2023-06-07T16:55:46.879Z,3.85
2023-06-07T16:58:48.814Z,3.33
2023-06-07T17:01:51.002Z,3.57
2023-06-07T17:04:53.067Z,3.80
2023-06-07T17:07:57.508Z,3.75
2023-06-07T17:10:59.524Z,4.35
2023-06-07T17:14:01.592Z,4.38
2023-06-07T17:17:03.752Z,4.27
2023-06-07T17:20:06.772Z,4.40
2023-06-07T17:23:09.488Z,4.00
2023-06-07T17:26:11.496Z,3.85
2023-06-07T17:29:28.004Z,2.70
2023-06-07T17:32:32.374Z,3.13
2023-06-07T17:35:34.498Z,3.25
2023-06-07T17:38:36.510Z,3.20
2023-06-07T17:41:39.510Z,3.25
2023-06-07T17:44:41.620Z,3.05
2023-06-07T17:47:52.606Z,3.13
2023-06-07T17:50:54.697Z,3.97
2023-06-07T17:53:56.790Z,5.03
2023-06-07T17:56:58.798Z,5.05
2023-06-07T18:00:00.862Z,4.75
2023-06-07T18:03:03.892Z,5.00
2023-06-07T18:06:06.448Z,5.20
2023-06-07T18:09:08.712Z,5.15
2023-06-07T18:12:13.909Z,5.63
2023-06-07T18:15:16.212Z,5.75
2023-06-07T18:18:18.326Z,5.63
2023-06-07T18:21:20.616Z,5.63
2023-06-07T18:24:22.707Z,5.68
2023-06-07T18:27:24.670Z,5.20
2023-06-07T18:30:27.177Z,5.70
2023-06-07T18:33:30.120Z,5.73
2023-06-07T18:36:32.126Z,5.28
2023-06-07T18:39:37.154Z,5.78
2023-06-07T18:42:39.174Z,5.68
2023-06-07T18:45:41.216Z,6.22
2023-06-07T18:48:43.259Z,6.50
2023-06-07T18:51:45.334Z,5.88
2023-06-07T18:54:50.094Z,6.80
2023-06-07T18:57:52.097Z,7.55
2023-06-07T19:00:54.526Z,7.13
2023-06-07T19:03:56.796Z,7.80
2023-06-07T19:06:59.391Z,7.22
2023-06-07T19:10:01.455Z,6.75
2023-06-07T19:13:03.621Z,6.85
2023-06-07T19:16:05.898Z,7.40
2023-06-07T19:19:07.925Z,6.57
2023-06-07T19:22:09.993Z,6.15
2023-06-07T19:25:12.000Z,6.63
2023-06-07T19:28:14.043Z,5.53
2023-06-07T19:31:16.438Z,5.85
2023-06-07T19:34:18.644Z,5.57
2023-06-07T19:37:20.910Z,4.97
2023-06-07T19:40:27.426Z,4.85
2023-06-07T19:43:29.485Z,4.75
2023-06-07T19:46:31.634Z,4.65
2023-06-07T19:49:33.868Z,4.10
2023-06-07T19:52:36.024Z,4.20
2023-06-07T19:55:38.071Z,4.78
2023-06-07T19:58:40.074Z,5.00
2023-06-07T20:01:42.231Z,4.88
2023-06-07T20:04:44.302Z,5.27
2023-06-07T20:07:46.282Z,5.95
2023-06-07T20:10:48.250Z,5.85
2023-06-07T20:13:54.650Z,6.13
2023-06-07T20:16:56.748Z,6.63
2023-06-07T20:19:58.964Z,7.70
2023-06-07T20:23:00.980Z,8.15
2023-06-07T20:26:02.989Z,8.57
2023-06-07T20:29:04.950Z,8.52
2023-06-07T20:32:07.366Z,9.93
2023-06-07T20:35:12.562Z,8.97
2023-06-07T20:38:14.609Z,8.23
2023-06-07T20:41:16.627Z,7.82
2023-06-07T20:44:19.277Z,8.10
2023-06-07T20:47:22.742Z,7.85
2023-06-07T20:50:27.103Z,7.17
2023-06-07T20:53:29.290Z,7.10
2023-06-07T20:56:32.872Z,6.88
2023-06-07T20:59:36.069Z,6.85
2023-06-07T21:02:38.663Z,6.82
2023-06-07T21:05:41.001Z,6.37
2023-06-07T21:08:43.085Z,5.97
2023-06-07T21:11:45.481Z,6.18
2023-06-07T21:14:47.529Z,5.95
2023-06-07T21:17:49.614Z,5.82
2023-06-07T21:20:52.157Z,5.53
2023-06-07T21:23:54.251Z,5.47
2023-06-07T21:26:56.510Z,5.90
2023-06-07T21:29:59.575Z,5.22
2023-06-07T21:33:03.653Z,5.85
2023-06-07T21:36:05.840Z,6.10
2023-06-07T21:39:07.874Z,6.65
2023-06-07T21:42:09.953Z,6.15
2023-06-07T21:45:12.238Z,6.72
2023-06-07T21:48:14.251Z,6.03
2023-06-07T21:51:16.475Z,5.50
2023-06-07T21:54:18.462Z,4.93
2023-06-07T21:57:20.581Z,5.40
2023-06-07T22:00:22.725Z,4.70
2023-06-07T22:03:24.854Z,5.20
2023-06-07T22:06:26.876Z,5.17
2023-06-07T22:09:28.860Z,5.05
2023-06-07T22:12:32.128Z,4.60
2023-06-07T22:15:34.426Z,4.90
2023-06-07T22:18:36.608Z,5.68
2023-06-07T22:21:38.709Z,4.63
2023-06-07T22:24:41.293Z,5.10
2023-06-07T22:27:43.347Z,4.97
2023-06-07T22:30:45.793Z,4.75
2023-06-07T22:33:51.601Z,5.53
2023-06-07T22:36:55.029Z,5.40
2023-06-07T22:39:56.980Z,4.50
2023-06-07T22:42:59.098Z,5.28
2023-06-07T22:46:01.130Z,5.03
2023-06-07T22:49:04.064Z,5.78
2023-06-07T22:52:06.534Z,4.80
2023-06-07T22:55:14.193Z,5.43
2023-06-07T22:58:16.435Z,6.15
2023-06-07T23:01:19.900Z,5.15
2023-06-07T23:04:22.051Z,5.18
2023-06-07T23:07:24.568Z,5.90
2023-06-07T23:10:35.587Z,6.18
2023-06-07T23:13:38.583Z,5.93
2023-06-07T23:16:40.802Z,6.00
2023-06-07T23:19:51.139Z,5.97
2023-06-07T23:22:53.227Z,6.93
2023-06-07T23:25:55.232Z,6.32
2023-06-07T23:28:57.439Z,6.65
2023-06-07T23:31:59.502Z,6.75
2023-06-07T23:35:01.541Z,6.82
2023-06-07T23:38:03.597Z,6.33
2023-06-07T23:41:05.508Z,6.80
2023-06-07T23:44:23.683Z,6.60
2023-06-07T23:47:25.744Z,6.38
2023-06-07T23:50:28.405Z,7.03
2023-06-07T23:53:30.381Z,6.63
2023-06-07T23:56:33.031Z,7.40
2023-06-07T23:59:35.057Z,7.07
